createdAt,value
2023-01-19T00:02:26.836Z,4.50
2023-01-19T00:05:28.904Z,4.40
2023-01-19T00:08:31.040Z,4.50
2023-01-19T00:11:33.153Z,4.50
2023-01-19T00:14:35.432Z,4.50
2023-01-19T00:17:37.651Z,4.50
2023-01-19T00:20:40.767Z,4.50
2023-01-19T00:23:43.986Z,4.50
2023-01-19T00:26:46.271Z,4.50
2023-01-19T00:29:48.477Z,4.50
2023-01-19T00:32:50.642Z,4.50
2023-01-19T00:35:55.393Z,4.50
2023-01-19T00:38:57.488Z,4.50
2023-01-19T00:42:18.101Z,4.50
2023-01-19T00:45:22.418Z,4.50
2023-01-19T00:48:24.628Z,4.50
2023-01-19T00:51:26.914Z,4.50
2023-01-19T00:54:29.020Z,4.50
2023-01-19T00:57:31.242Z,4.50
2023-01-19T01:00:33.701Z,4.50
2023-01-19T01:03:35.981Z,4.50
2023-01-19T01:06:38.317Z,4.50
2023-01-19T01:09:40.413Z,4.60
2023-01-19T01:12:57.561Z,4.50
2023-01-19T01:16:05.549Z,4.50
2023-01-19T01:19:09.034Z,4.50
2023-01-19T01:22:11.226Z,4.50
2023-01-19T01:25:15.213Z,4.50
2023-01-19T01:28:17.412Z,4.50
2023-01-19T01:31:19.676Z,4.50
2023-01-19T01:34:21.877Z,4.50
2023-01-19T01:37:24.059Z,4.50
2023-01-19T01:40:26.909Z,4.50
2023-01-19T01:43:43.968Z,4.50
2023-01-19T01:46:46.853Z,4.50
2023-01-19T01:49:51.599Z,4.40
2023-01-19T01:53:06.431Z,4.40
2023-01-19T01:56:16.686Z,4.40
2023-01-19T01:59:26.536Z,4.40
2023-01-19T02:02:49.803Z,4.40
2023-01-19T02:05:53.788Z,4.40
2023-01-19T02:09:24.631Z,4.30
2023-01-19T02:12:46.860Z,4.30
2023-01-19T02:15:54.666Z,4.30
2023-01-19T02:18:57.689Z,4.30
2023-01-19T02:22:06.948Z,4.30
2023-01-19T02:25:09.465Z,4.30
2023-01-19T02:28:12.191Z,4.30
2023-01-19T02:31:15.297Z,4.30
2023-01-19T02:34:20.844Z,4.20
2023-01-19T02:37:23.102Z,4.20
2023-01-19T02:40:28.085Z,4.10
2023-01-19T02:43:31.093Z,4.10
2023-01-19T02:46:33.551Z,4.10
2023-01-19T02:49:36.302Z,4.10
2023-01-19T02:52:38.458Z,4.00
2023-01-19T02:55:45.098Z,4.00
2023-01-19T02:58:54.903Z,4.00
2023-01-19T03:02:36.675Z,4.00
2023-01-19T03:05:57.627Z,4.00
2023-01-19T03:09:10.352Z,3.90
2023-01-19T03:12:42.868Z,4.00
2023-01-19T03:15:55.996Z,4.00
2023-01-19T03:19:16.347Z,3.90
2023-01-19T03:22:24.153Z,3.90
2023-01-19T03:25:27.152Z,3.70
2023-01-19T03:28:30.524Z,3.60
2023-01-19T03:31:34.267Z,3.50
2023-01-19T03:34:38.613Z,3.40
2023-01-19T03:37:44.525Z,3.30
2023-01-19T03:40:47.684Z,3.10
2023-01-19T03:43:52.059Z,3.00
2023-01-19T03:46:55.373Z,2.90
2023-01-19T03:50:01.796Z,2.80
2023-01-19T03:53:13.731Z,2.70
2023-01-19T03:56:24.992Z,2.70
2023-01-19T03:59:27.132Z,2.70
2023-01-19T04:02:29.300Z,2.60
2023-01-19T04:05:31.558Z,2.60
2023-01-19T04:08:33.724Z,2.50
2023-01-19T04:11:35.959Z,2.40
2023-01-19T04:14:38.062Z,2.40
2023-01-19T04:17:40.647Z,2.30
2023-01-19T04:20:42.771Z,2.30
2023-01-19T04:23:46.065Z,2.30
2023-01-19T04:26:48.184Z,2.20
2023-01-19T04:29:50.993Z,2.20
2023-01-19T04:32:55.421Z,2.10
2023-01-19T04:35:57.980Z,2.10
2023-01-19T04:39:00.229Z,2.10
2023-01-19T04:42:02.559Z,2.10
2023-01-19T04:45:05.000Z,2.10
2023-01-19T04:48:07.382Z,2.00
2023-01-19T04:51:09.971Z,2.10
2023-01-19T04:54:12.152Z,2.00
2023-01-19T04:57:14.307Z,2.00
2023-01-19T05:00:17.841Z,2.00
2023-01-19T05:03:20.602Z,2.00
2023-01-19T05:06:22.757Z,2.00
2023-01-19T05:09:25.941Z,2.00
2023-01-19T05:12:28.040Z,1.90
2023-01-19T05:15:30.280Z,1.90
2023-01-19T05:18:36.089Z,1.90
2023-01-19T05:21:38.729Z,1.90
2023-01-19T05:24:41.050Z,1.90
2023-01-19T05:27:43.406Z,1.90
2023-01-19T05:30:45.676Z,1.90
2023-01-19T05:33:49.229Z,1.90
2023-01-19T05:36:51.608Z,1.80
2023-01-19T05:39:54.854Z,1.80
2023-01-19T05:43:01.045Z,1.80
2023-01-19T05:46:06.686Z,1.80
2023-01-19T05:49:09.061Z,1.70
2023-01-19T05:52:11.184Z,1.70
2023-01-19T05:55:14.976Z,1.70
2023-01-19T05:58:17.840Z,1.80
2023-01-19T06:01:20.013Z,1.80
2023-01-19T06:04:22.601Z,1.70
2023-01-19T06:07:25.646Z,1.70
2023-01-19T06:10:28.845Z,1.70
2023-01-19T06:13:30.891Z,1.70
2023-01-19T06:16:33.074Z,1.70
2023-01-19T06:19:35.204Z,1.70
2023-01-19T06:22:37.461Z,1.70
2023-01-19T06:25:39.507Z,1.70
2023-01-19T06:28:41.676Z,1.70
2023-01-19T06:31:43.925Z,1.70
2023-01-19T06:34:46.922Z,1.70
2023-01-19T06:37:49.031Z,1.70
2023-01-19T06:41:03.291Z,1.60
2023-01-19T06:44:06.349Z,1.70
2023-01-19T06:47:15.002Z,1.70
2023-01-19T06:50:18.447Z,1.70
2023-01-19T06:53:22.323Z,1.70
2023-01-19T06:56:24.620Z,1.70
2023-01-19T06:59:26.828Z,1.70
2023-01-19T07:02:29.143Z,1.70
2023-01-19T07:05:31.269Z,1.70
2023-01-19T07:08:37.589Z,1.70
2023-01-19T07:11:40.055Z,1.70
2023-01-19T07:14:42.430Z,1.70
2023-01-19T07:17:44.592Z,1.80
2023-01-19T07:20:49.225Z,1.80
2023-01-19T07:23:52.977Z,1.80
2023-01-19T07:26:55.063Z,1.70
2023-01-19T07:29:57.147Z,1.80
2023-01-19T07:32:59.783Z,1.80
2023-01-19T07:36:02.297Z,1.70
2023-01-19T07:39:04.370Z,1.80
2023-01-19T07:42:07.449Z,1.70
2023-01-19T07:45:10.368Z,1.70
2023-01-19T07:48:12.493Z,1.70
2023-01-19T07:51:18.847Z,1.70
2023-01-19T07:54:21.176Z,1.70
2023-01-19T07:57:24.160Z,1.80
2023-01-19T08:00:26.717Z,1.80
2023-01-19T08:03:28.843Z,1.80
2023-01-19T08:06:34.955Z,1.80
2023-01-19T08:09:37.058Z,1.80
2023-01-19T08:12:39.600Z,1.80
2023-01-19T08:15:41.651Z,1.80
2023-01-19T08:18:43.893Z,1.90
2023-01-19T08:21:46.445Z,1.90
2023-01-19T08:24:50.354Z,1.80
2023-01-19T08:27:55.472Z,1.90
2023-01-19T08:30:57.953Z,1.80
2023-01-19T08:34:00.204Z,1.90
2023-01-19T08:37:02.352Z,1.90
2023-01-19T08:40:05.275Z,1.80
2023-01-19T08:43:13.409Z,1.90
2023-01-19T08:46:17.582Z,1.90
2023-01-19T08:49:19.830Z,1.90
2023-01-19T08:52:21.894Z,2.00
2023-01-19T08:55:24.526Z,2.00
2023-01-19T08:58:26.899Z,2.00
2023-01-19T09:01:29.020Z,2.00
2023-01-19T09:04:33.008Z,2.10
2023-01-19T09:07:35.740Z,2.10
2023-01-19T09:10:39.366Z,2.10
2023-01-19T09:13:42.673Z,2.10
2023-01-19T09:16:44.895Z,2.10
2023-01-19T09:19:47.492Z,2.10
2023-01-19T09:22:49.864Z,2.10
2023-01-19T09:25:57.260Z,2.10
2023-01-19T09:28:59.871Z,2.20
2023-01-19T09:32:02.339Z,2.20
2023-01-19T09:35:05.028Z,2.20
2023-01-19T09:38:09.160Z,2.20
2023-01-19T09:41:22.614Z,2.30
2023-01-19T09:44:29.470Z,2.30
2023-01-19T09:47:33.091Z,2.30
2023-01-19T09:50:39.838Z,2.30
2023-01-19T09:54:15.795Z,2.30
2023-01-19T09:57:17.910Z,2.40
2023-01-19T10:00:22.691Z,2.40
2023-01-19T10:03:24.899Z,2.40
2023-01-19T10:06:27.605Z,2.40
2023-01-19T10:09:46.626Z,2.40
2023-01-19T10:13:12.960Z,2.40
2023-01-19T10:16:42.255Z,2.40
2023-01-19T10:19:53.802Z,2.40
2023-01-19T10:22:58.850Z,2.50
2023-01-19T10:26:06.914Z,2.50
2023-01-19T10:29:16.031Z,2.50
2023-01-19T10:32:25.687Z,2.50
2023-01-19T10:35:29.451Z,2.50
2023-01-19T10:38:34.198Z,2.50
2023-01-19T10:41:44.315Z,2.50
2023-01-19T10:44:46.444Z,2.50
2023-01-19T10:47:49.620Z,2.40
2023-01-19T10:51:05.835Z,2.40
2023-01-19T10:54:13.096Z,2.30
2023-01-19T10:57:28.589Z,2.30
2023-01-19T11:00:30.745Z,2.20
2023-01-19T11:03:32.987Z,2.20
2023-01-19T11:06:35.812Z,2.10
2023-01-19T11:09:38.006Z,2.10
2023-01-19T11:13:12.532Z,2.00
2023-01-19T11:16:27.905Z,2.00
2023-01-19T11:19:33.081Z,1.90
2023-01-19T11:22:35.215Z,1.90
2023-01-19T11:25:37.491Z,1.80
2023-01-19T11:28:49.395Z,1.80
2023-01-19T11:31:53.104Z,1.70
2023-01-19T11:34:55.322Z,1.70
2023-01-19T11:38:23.190Z,1.60
2023-01-19T11:41:35.110Z,1.60
2023-01-19T11:44:44.961Z,1.60
2023-01-19T11:47:52.675Z,1.60
2023-01-19T11:50:55.857Z,1.60
2023-01-19T11:53:58.118Z,1.50
2023-01-19T11:57:01.042Z,1.50
2023-01-19T12:00:12.401Z,1.50
2023-01-19T12:03:46.543Z,1.50
2023-01-19T12:06:54.673Z,1.50
2023-01-19T12:10:17.928Z,1.50
2023-01-19T12:13:25.519Z,1.50
2023-01-19T12:16:31.430Z,1.60
2023-01-19T12:19:45.278Z,1.80
2023-01-19T12:22:55.975Z,1.90
2023-01-19T12:26:06.866Z,1.90
2023-01-19T12:29:15.385Z,1.90
2023-01-19T12:32:18.778Z,1.80
2023-01-19T12:35:58.663Z,1.80
2023-01-19T12:39:20.503Z,1.70
2023-01-19T12:42:23.473Z,1.70
2023-01-19T12:45:34.645Z,1.80
2023-01-19T12:48:36.951Z,1.80
2023-01-19T12:51:39.061Z,1.80
2023-01-19T12:54:50.414Z,1.80
2023-01-19T12:58:18.834Z,1.80
2023-01-19T13:01:22.006Z,1.90
2023-01-19T13:04:33.185Z,2.00
2023-01-19T13:08:03.345Z,2.00
2023-01-19T13:11:06.359Z,2.00
2023-01-19T13:14:34.771Z,2.00
2023-01-19T13:17:54.446Z,2.00
2023-01-19T13:21:06.656Z,2.00
2023-01-19T13:24:11.927Z,2.00
2023-01-19T13:27:14.291Z,2.00
2023-01-19T13:30:19.416Z,2.00
2023-01-19T13:33:27.213Z,1.90
2023-01-19T13:36:33.240Z,1.90
2023-01-19T13:39:46.411Z,1.90
2023-01-19T13:42:51.247Z,1.80
2023-01-19T13:45:54.589Z,1.80
2023-01-19T13:49:01.215Z,1.80
2023-01-19T13:52:21.041Z,1.80
2023-01-19T13:55:24.166Z,1.80
2023-01-19T13:58:26.456Z,1.90
2023-01-19T14:01:30.342Z,1.90
2023-01-19T14:04:34.017Z,1.90
2023-01-19T14:07:36.145Z,1.90
2023-01-19T14:10:48.585Z,1.90
2023-01-19T14:13:50.689Z,1.90
2023-01-19T14:16:53.416Z,1.90
2023-01-19T14:19:57.830Z,1.90
2023-01-19T14:23:00.029Z,1.90
2023-01-19T14:26:02.222Z,1.90
2023-01-19T14:29:10.142Z,1.90
2023-01-19T14:32:22.485Z,1.90
2023-01-19T14:35:25.238Z,2.00
2023-01-19T14:38:27.596Z,2.10
2023-01-19T14:41:38.685Z,2.10
2023-01-19T14:44:41.109Z,2.10
2023-01-19T14:47:45.944Z,2.20
2023-01-19T14:51:02.360Z,2.10
2023-01-19T14:54:05.626Z,2.10
2023-01-19T14:57:13.291Z,2.00
2023-01-19T15:00:19.141Z,2.00
2023-01-19T15:03:24.977Z,2.00
2023-01-19T15:06:29.126Z,1.90
2023-01-19T15:09:31.255Z,1.80
2023-01-19T15:12:33.420Z,1.70
2023-01-19T15:15:35.782Z,1.60
2023-01-19T15:18:38.880Z,1.50
2023-01-19T15:21:42.352Z,1.40
2023-01-19T15:24:44.687Z,1.30
2023-01-19T15:27:48.281Z,1.20
2023-01-19T15:30:50.474Z,1.20
2023-01-19T15:33:52.677Z,1.20
2023-01-19T15:36:54.799Z,1.20
2023-01-19T15:39:56.987Z,1.20
2023-01-19T15:42:59.162Z,1.20
2023-01-19T15:46:02.537Z,1.20
2023-01-19T15:49:08.083Z,1.20
2023-01-19T15:52:10.189Z,1.20
2023-01-19T15:55:14.975Z,1.30
2023-01-19T15:58:18.555Z,1.30
2023-01-19T16:01:23.360Z,1.30
2023-01-19T16:04:25.605Z,1.30
2023-01-19T16:07:28.092Z,1.30
2023-01-19T16:10:30.477Z,1.30
2023-01-19T16:13:32.923Z,1.30
2023-01-19T16:16:35.162Z,1.30
2023-01-19T16:19:37.366Z,1.30
2023-01-19T16:22:39.951Z,1.30
2023-01-19T16:25:42.387Z,1.30
2023-01-19T16:28:44.590Z,1.30
2023-01-19T16:31:46.823Z,1.20
2023-01-19T16:34:49.295Z,1.20
2023-01-19T16:37:51.977Z,1.10
2023-01-19T16:40:54.133Z,1.00
2023-01-19T16:43:58.477Z,0.90
2023-01-19T16:47:00.929Z,0.80
2023-01-19T16:50:03.776Z,0.60
2023-01-19T16:53:06.508Z,0.50
2023-01-19T16:56:11.820Z,0.40
2023-01-19T16:59:16.477Z,0.30
2023-01-19T17:02:18.921Z,0.20
2023-01-19T17:05:21.554Z,0.10
2023-01-19T17:08:24.565Z,0.10
2023-01-19T17:11:29.959Z,0.10
2023-01-19T17:14:33.900Z,0.00
2023-01-19T17:17:37.331Z,-0.10
2023-01-19T17:20:40.125Z,-0.20
2023-01-19T17:23:44.455Z,-0.20
2023-01-19T17:26:49.070Z,-0.30
2023-01-19T17:29:52.109Z,-0.40
2023-01-19T17:32:54.594Z,-0.30
2023-01-19T17:36:06.382Z,-0.20
2023-01-19T17:39:14.951Z,-0.20
2023-01-19T17:42:18.635Z,0.10
2023-01-19T17:45:22.359Z,0.30
2023-01-19T17:48:27.440Z,0.30
2023-01-19T17:51:31.887Z,0.30
2023-01-19T17:54:35.288Z,0.20
2023-01-19T17:57:38.916Z,0.20
2023-01-19T18:00:42.560Z,0.20
2023-01-19T18:03:47.336Z,0.20
2023-01-19T18:06:50.747Z,0.20
2023-01-19T18:09:57.383Z,0.20
2023-01-19T18:13:01.443Z,0.10
2023-01-19T18:16:10.649Z,0.10
2023-01-19T18:19:16.717Z,0.00
2023-01-19T18:22:20.340Z,-0.10
2023-01-19T18:25:23.968Z,-0.20
2023-01-19T18:28:27.870Z,-0.30
2023-01-19T18:31:31.932Z,-0.30
2023-01-19T18:34:35.640Z,-0.40
2023-01-19T18:37:39.226Z,-0.40
2023-01-19T18:40:43.285Z,-0.50
2023-01-19T18:43:49.444Z,-0.50
2023-01-19T18:47:01.049Z,-0.60
2023-01-19T18:50:05.307Z,-0.60
2023-01-19T18:53:10.990Z,-0.70
2023-01-19T18:56:17.617Z,-0.70
2023-01-19T18:59:21.100Z,-0.70
2023-01-19T19:02:24.478Z,-0.70
2023-01-19T19:05:29.099Z,-0.70
2023-01-19T19:08:34.126Z,-0.70
2023-01-19T19:11:38.675Z,-0.70
2023-01-19T19:14:45.590Z,-0.70
2023-01-19T19:17:50.622Z,-0.70
2023-01-19T19:20:54.201Z,-0.80
2023-01-19T19:23:58.821Z,-0.80
2023-01-19T19:27:02.535Z,-0.80
2023-01-19T19:30:06.453Z,-0.80
2023-01-19T19:33:10.208Z,-0.90
2023-01-19T19:36:13.772Z,-0.90
2023-01-19T19:39:17.729Z,-0.90
2023-01-19T19:42:23.221Z,-0.90
2023-01-19T19:45:27.501Z,-0.90
2023-01-19T19:48:32.529Z,-0.80
2023-01-19T19:51:39.073Z,-0.80
2023-01-19T19:54:45.141Z,-0.80
2023-01-19T19:57:48.645Z,-0.70
2023-01-19T20:00:54.685Z,-0.60
2023-01-19T20:04:03.225Z,-0.50
2023-01-19T20:07:06.486Z,-0.50
2023-01-19T20:10:12.022Z,-0.50
2023-01-19T20:13:21.268Z,-0.50
2023-01-19T20:16:25.703Z,-0.50
2023-01-19T20:19:32.457Z,-0.60
2023-01-19T20:22:35.872Z,-0.60
2023-01-19T20:25:40.723Z,-0.60
2023-01-19T20:28:48.102Z,-0.50
2023-01-19T20:31:54.711Z,-0.50
2023-01-19T20:34:58.816Z,-0.50
2023-01-19T20:38:02.060Z,-0.50
2023-01-19T20:41:08.406Z,-0.50
2023-01-19T20:44:17.125Z,-0.60
2023-01-19T20:47:20.986Z,-0.60
2023-01-19T20:50:24.373Z,-0.60
2023-01-19T20:53:29.279Z,-0.60
2023-01-19T20:56:32.811Z,-0.60
2023-01-19T20:59:37.025Z,-0.60
2023-01-19T21:02:40.740Z,-0.60
2023-01-19T21:05:47.828Z,-0.70
2023-01-19T21:08:50.980Z,-0.70
2023-01-19T21:11:56.514Z,-0.70
2023-01-19T21:15:00.324Z,-0.70
2023-01-19T21:18:04.587Z,-0.80
2023-01-19T21:21:10.683Z,-0.80
2023-01-19T21:24:17.373Z,-0.90
2023-01-19T21:27:20.164Z,-0.90
2023-01-19T21:30:23.083Z,-0.90
2023-01-19T21:33:25.542Z,-0.80
2023-01-19T21:36:27.924Z,-0.90
2023-01-19T21:39:30.026Z,-0.80
2023-01-19T21:42:32.103Z,-0.90
2023-01-19T21:45:34.414Z,-0.90
2023-01-19T21:48:36.800Z,-0.90
2023-01-19T21:51:39.047Z,-0.90
2023-01-19T21:54:41.506Z,-0.90
2023-01-19T21:57:43.640Z,-1.00
2023-01-19T22:00:46.034Z,-1.00
2023-01-19T22:03:48.163Z,-1.10
2023-01-19T22:06:50.258Z,-1.10
2023-01-19T22:09:52.295Z,-1.10
2023-01-19T22:12:54.369Z,-1.10
2023-01-19T22:16:04.122Z,-1.10
2023-01-19T22:19:08.213Z,-1.10
2023-01-19T22:22:10.303Z,-1.10
2023-01-19T22:25:12.890Z,-0.90
2023-01-19T22:28:15.365Z,-0.90
2023-01-19T22:31:18.752Z,-1.00
2023-01-19T22:34:21.142Z,-1.10
2023-01-19T22:37:23.243Z,-1.10
2023-01-19T22:40:25.464Z,-1.10
2023-01-19T22:43:27.513Z,-1.20
2023-01-19T22:46:32.258Z,-1.30
2023-01-19T22:49:34.422Z,-1.30
2023-01-19T22:52:36.494Z,-1.30
2023-01-19T22:55:38.626Z,-1.30
2023-01-19T22:58:44.300Z,-1.50
2023-01-19T23:01:47.218Z,-1.50
2023-01-19T23:04:49.495Z,-1.50
2023-01-19T23:07:51.589Z,-1.50
2023-01-19T23:10:53.754Z,-1.60
2023-01-19T23:13:56.315Z,-1.60
2023-01-19T23:16:58.502Z,-1.70
2023-01-19T23:20:00.726Z,-1.60
2023-01-19T23:23:03.037Z,-1.70
2023-01-19T23:26:17.234Z,-1.70
2023-01-19T23:29:19.836Z,-1.70
2023-01-19T23:32:22.092Z,-1.70
2023-01-19T23:35:24.217Z,-1.70
2023-01-19T23:38:26.280Z,-1.80
2023-01-19T23:41:31.139Z,-1.80
2023-01-19T23:44:33.243Z,-1.80
2023-01-19T23:47:36.169Z,-1.80
2023-01-19T23:50:40.833Z,-1.80
2023-01-19T23:53:43.572Z,-1.80
2023-01-19T23:56:45.647Z,-1.80
2023-01-19T23:59:48.075Z,-1.70
